createdAt,value
2023-03-25T00:00:39.931Z,99.90
2023-03-25T00:05:43.756Z,99.90
2023-03-25T00:10:47.660Z,99.90
2023-03-25T00:15:53.798Z,99.90
2023-03-25T00:20:58.065Z,99.90
2023-03-25T00:26:01.918Z,99.90
2023-03-25T00:31:09.634Z,99.90
2023-03-25T00:36:15.311Z,99.90
2023-03-25T00:41:23.024Z,99.90
2023-03-25T00:46:29.984Z,99.90
2023-03-25T00:51:33.874Z,99.90
2023-03-25T00:56:39.449Z,99.90
2023-03-25T01:01:46.230Z,99.90
2023-03-25T01:06:51.925Z,99.90
2023-03-25T01:11:55.424Z,99.90
2023-03-25T01:17:00.756Z,99.90
2023-03-25T01:22:06.664Z,99.90
2023-03-25T01:27:10.468Z,99.90
2023-03-25T01:32:15.516Z,99.90
2023-03-25T01:37:19.653Z,99.90
2023-03-25T01:42:23.028Z,99.70
2023-03-25T01:47:28.356Z,99.50
2023-03-25T01:52:32.674Z,99.30
2023-03-25T01:57:37.598Z,99.20
2023-03-25T02:02:42.784Z,99.10
2023-03-25T02:07:48.722Z,99.10
2023-03-25T02:12:52.144Z,98.90
2023-03-25T02:18:09.329Z,98.70
2023-03-25T02:23:42.291Z,98.50
2023-03-25T02:28:53.030Z,98.30
2023-03-25T02:34:25.085Z,98.30
2023-03-25T02:39:36.514Z,98.20
2023-03-25T02:44:44.660Z,98.10
2023-03-25T02:49:52.557Z,98.00
2023-03-25T02:55:04.332Z,98.00
2023-03-25T03:00:15.797Z,98.40
2023-03-25T03:05:27.331Z,98.40
2023-03-25T03:10:39.725Z,98.50
2023-03-25T03:15:51.372Z,98.60
2023-03-25T03:21:01.694Z,98.60
2023-03-25T03:26:14.178Z,98.60
2023-03-25T03:31:47.637Z,98.70
2023-03-25T03:36:51.267Z,98.70
2023-03-25T03:42:00.651Z,98.60
2023-03-25T03:47:10.955Z,98.60
2023-03-25T03:52:18.578Z,98.50
2023-03-25T03:57:27.829Z,98.50
2023-03-25T04:02:39.658Z,98.30
2023-03-25T04:07:46.977Z,98.20
2023-03-25T04:12:53.805Z,98.00
2023-03-25T04:17:57.676Z,97.70
2023-03-25T04:23:01.052Z,97.30
2023-03-25T04:28:07.205Z,96.70
2023-03-25T04:33:10.918Z,96.20
2023-03-25T04:38:18.169Z,95.70
2023-03-25T04:43:22.839Z,95.20
2023-03-25T04:48:30.558Z,94.80
2023-03-25T04:53:33.976Z,94.30
2023-03-25T04:58:38.676Z,94.00
2023-03-25T05:03:42.335Z,93.80
2023-03-25T05:08:45.921Z,93.60
2023-03-25T05:13:50.564Z,93.30
2023-03-25T05:18:53.953Z,93.10
2023-03-25T05:23:58.155Z,93.00
2023-03-25T05:29:03.190Z,93.00
2023-03-25T05:34:06.766Z,92.80
2023-03-25T05:39:10.943Z,92.70
2023-03-25T05:44:18.942Z,92.30
2023-03-25T05:49:22.469Z,92.50
2023-03-25T05:54:25.801Z,92.50
2023-03-25T05:59:30.437Z,92.50
2023-03-25T06:04:37.835Z,92.10
2023-03-25T06:09:46.302Z,92.00
2023-03-25T06:14:54.084Z,91.90
2023-03-25T06:19:57.555Z,91.60
2023-03-25T06:25:03.678Z,91.10
2023-03-25T06:30:11.506Z,90.50
2023-03-25T06:35:18.305Z,89.90
2023-03-25T06:40:24.292Z,89.20
2023-03-25T06:45:29.304Z,88.30
2023-03-25T06:50:43.877Z,87.60
2023-03-25T06:55:47.140Z,87.70
2023-03-25T07:00:56.647Z,87.90
2023-03-25T07:06:00.356Z,88.50
2023-03-25T07:11:04.726Z,88.30
2023-03-25T07:16:11.491Z,88.00
2023-03-25T07:21:18.841Z,87.20
2023-03-25T07:26:22.134Z,86.60
2023-03-25T07:31:26.891Z,86.80
2023-03-25T07:36:30.318Z,87.50
2023-03-25T07:41:33.542Z,88.40
2023-03-25T07:46:50.744Z,89.30
2023-03-25T07:51:54.063Z,90.10
2023-03-25T07:56:57.553Z,90.40
2023-03-25T08:02:02.758Z,90.40
2023-03-25T08:07:06.907Z,90.50
2023-03-25T08:12:10.554Z,90.40
2023-03-25T08:17:15.923Z,90.40
2023-03-25T08:22:19.138Z,90.40
2023-03-25T08:27:22.557Z,90.50
2023-03-25T08:32:28.192Z,90.10
2023-03-25T08:37:35.118Z,89.80
2023-03-25T08:42:38.919Z,89.80
2023-03-25T08:47:45.770Z,89.70
2023-03-25T08:52:49.140Z,89.50
2023-03-25T08:57:52.966Z,90.10
2023-03-25T09:02:59.154Z,90.70
2023-03-25T09:08:04.114Z,91.50
2023-03-25T09:13:07.482Z,92.00
2023-03-25T09:18:12.509Z,91.80
2023-03-25T09:23:16.417Z,91.30
2023-03-25T09:28:19.786Z,90.90
2023-03-25T09:33:24.375Z,90.40
2023-03-25T09:38:27.643Z,87.40
2023-03-25T09:43:46.162Z,85.60
2023-03-25T09:48:52.435Z,84.60
2023-03-25T09:54:00.121Z,83.50
2023-03-25T09:59:07.521Z,83.60
2023-03-25T10:04:29.417Z,83.50
2023-03-25T10:09:42.447Z,82.80
2023-03-25T10:15:00.615Z,81.70
2023-03-25T10:20:12.943Z,81.10
2023-03-25T10:25:21.879Z,79.80
2023-03-25T10:30:28.679Z,77.60
2023-03-25T10:35:39.312Z,75.90
2023-03-25T10:40:49.950Z,75.90
2023-03-25T10:45:57.774Z,75.00
2023-03-25T10:51:06.417Z,74.90
2023-03-25T10:56:13.907Z,75.00
2023-03-25T11:01:19.747Z,74.00
2023-03-25T11:06:29.743Z,72.80
2023-03-25T11:11:34.256Z,72.20
2023-03-25T11:16:43.870Z,72.00
2023-03-25T11:21:54.359Z,71.80
2023-03-25T11:26:58.090Z,72.00
2023-03-25T11:32:08.472Z,71.40
2023-03-25T11:37:19.815Z,71.10
2023-03-25T11:42:33.028Z,71.20
2023-03-25T11:47:40.459Z,71.00
2023-03-25T11:52:46.743Z,70.30
2023-03-25T11:57:51.744Z,70.30
2023-03-25T12:03:02.034Z,68.90
2023-03-25T12:08:15.358Z,68.10
2023-03-25T12:13:31.165Z,66.90
2023-03-25T12:18:49.381Z,66.50
2023-03-25T12:24:07.084Z,68.70
2023-03-25T12:29:31.707Z,72.10
2023-03-25T12:34:47.156Z,73.10
2023-03-25T12:40:12.353Z,74.00
2023-03-25T12:45:34.497Z,73.70
2023-03-25T12:50:46.007Z,72.30
2023-03-25T12:56:00.789Z,71.60
2023-03-25T13:01:13.527Z,70.60
2023-03-25T13:06:24.324Z,69.50
2023-03-25T13:11:36.275Z,68.20
2023-03-25T13:16:41.708Z,72.20
2023-03-25T13:21:50.845Z,79.10
2023-03-25T13:26:56.634Z,85.10
2023-03-25T13:32:03.576Z,89.80
2023-03-25T13:37:13.607Z,92.30
2023-03-25T13:42:23.723Z,94.40
2023-03-25T13:47:32.152Z,96.00
2023-03-25T13:52:40.479Z,97.30
2023-03-25T13:58:25.435Z,97.60
2023-03-25T14:03:58.502Z,97.30
2023-03-25T14:09:34.162Z,97.00
2023-03-25T14:14:42.115Z,96.70
2023-03-25T14:19:52.876Z,96.20
2023-03-25T14:24:57.421Z,95.70
2023-03-25T14:30:05.900Z,95.10
2023-03-25T14:35:49.678Z,94.60
2023-03-25T14:41:03.097Z,94.00
2023-03-25T14:46:18.295Z,93.30
2023-03-25T14:51:46.660Z,92.50
2023-03-25T14:56:55.832Z,91.90
2023-03-25T15:02:10.464Z,91.20
2023-03-25T15:07:19.975Z,90.70
2023-03-25T15:12:27.262Z,90.70
2023-03-25T15:17:49.293Z,90.30
2023-03-25T15:23:30.242Z,90.00
2023-03-25T15:29:12.426Z,90.00
2023-03-25T15:34:41.330Z,90.00
2023-03-25T15:40:06.500Z,90.00
2023-03-25T15:45:55.252Z,89.90
2023-03-25T15:51:15.942Z,89.60
2023-03-25T15:56:23.172Z,88.70
2023-03-25T16:01:31.641Z,87.40
2023-03-25T16:06:42.884Z,86.80
2023-03-25T16:11:47.192Z,86.20
2023-03-25T16:16:54.168Z,85.60
2023-03-25T16:22:03.610Z,84.80
2023-03-25T16:27:19.989Z,84.30
2023-03-25T16:32:25.683Z,83.70
2023-03-25T16:37:33.938Z,83.30
2023-03-25T16:42:37.654Z,83.30
2023-03-25T16:47:41.504Z,82.60
2023-03-25T16:52:47.955Z,82.20
2023-03-25T16:57:51.944Z,82.30
2023-03-25T17:02:57.340Z,82.40
2023-03-25T17:08:05.266Z,82.30
2023-03-25T17:13:11.222Z,82.30
2023-03-25T17:18:17.615Z,82.30
2023-03-25T17:23:34.097Z,82.30
2023-03-25T17:28:40.311Z,82.40
2023-03-25T17:33:50.607Z,82.60
2023-03-25T17:38:56.003Z,83.00
2023-03-25T17:43:59.495Z,83.60
2023-03-25T17:49:02.772Z,84.20
2023-03-25T17:54:07.818Z,85.20
2023-03-25T17:59:16.769Z,86.40
2023-03-25T18:04:22.648Z,87.50
2023-03-25T18:09:28.428Z,88.00
2023-03-25T18:14:32.139Z,88.40
2023-03-25T18:19:35.794Z,88.40
2023-03-25T18:24:40.822Z,88.20
2023-03-25T18:29:44.383Z,88.10
2023-03-25T18:34:47.825Z,89.00
2023-03-25T18:39:52.930Z,90.30
2023-03-25T18:44:57.040Z,91.40
2023-03-25T18:50:00.943Z,92.50
2023-03-25T18:55:06.634Z,93.40
2023-03-25T19:00:21.681Z,93.90
2023-03-25T19:05:26.299Z,94.10
2023-03-25T19:10:34.302Z,94.30
2023-03-25T19:15:38.022Z,94.60
2023-03-25T19:20:41.626Z,94.00
2023-03-25T19:25:47.594Z,93.70
2023-03-25T19:30:55.063Z,93.70
2023-03-25T19:36:00.166Z,94.00
2023-03-25T19:41:07.568Z,94.10
2023-03-25T19:46:11.606Z,94.10
2023-03-25T19:51:14.973Z,94.00
2023-03-25T19:56:19.583Z,93.80
2023-03-25T20:01:23.185Z,93.90
2023-03-25T20:06:26.453Z,94.00
2023-03-25T20:11:31.121Z,94.20
2023-03-25T20:16:34.990Z,94.20
2023-03-25T20:21:38.404Z,94.40
2023-03-25T20:26:43.056Z,94.60
2023-03-25T20:31:46.578Z,94.70
2023-03-25T20:36:49.962Z,94.70
2023-03-25T20:41:54.821Z,94.70
2023-03-25T20:46:58.857Z,94.70
2023-03-25T20:52:02.657Z,94.60
2023-03-25T20:57:07.758Z,94.50
2023-03-25T21:02:12.870Z,94.40
2023-03-25T21:07:19.747Z,94.30
2023-03-25T21:12:32.866Z,94.10
2023-03-25T21:17:44.818Z,94.00
2023-03-25T21:22:48.133Z,93.80
2023-03-25T21:27:53.108Z,93.70
2023-03-25T21:32:57.081Z,93.60
2023-03-25T21:38:01.068Z,93.60
2023-03-25T21:43:06.184Z,93.60
2023-03-25T21:48:10.428Z,93.60
2023-03-25T21:53:18.964Z,93.50
2023-03-25T21:58:24.076Z,93.40
2023-03-25T22:03:30.441Z,93.30
2023-03-25T22:08:34.236Z,93.40
2023-03-25T22:13:39.435Z,93.80
2023-03-25T22:18:43.392Z,93.60
2023-03-25T22:23:48.374Z,93.90
2023-03-25T22:28:57.025Z,94.20
2023-03-25T22:34:03.746Z,94.50
2023-03-25T22:39:07.675Z,94.70
2023-03-25T22:44:13.713Z,94.90
2023-03-25T22:49:18.327Z,95.00
2023-03-25T22:54:21.666Z,95.30
2023-03-25T22:59:26.358Z,95.50
2023-03-25T23:04:29.609Z,95.70
2023-03-25T23:09:42.687Z,95.80
2023-03-25T23:14:52.286Z,96.20
2023-03-25T23:19:55.823Z,96.00
2023-03-25T23:24:59.996Z,96.20
2023-03-25T23:30:06.531Z,96.30
2023-03-25T23:35:10.996Z,96.50
2023-03-25T23:40:14.363Z,96.70
2023-03-25T23:45:19.957Z,96.70
2023-03-25T23:50:23.234Z,96.50
2023-03-25T23:55:27.808Z,96.30
